createdAt,value
2022-08-07T00:01:43.128Z,20.30
2022-08-07T00:04:03.479Z,20.12
2022-08-07T00:06:33.442Z,19.87
2022-08-07T00:09:16.667Z,20.23
2022-08-07T00:11:54.019Z,20.31
2022-08-07T00:14:29.861Z,20.39
2022-08-07T00:17:02.724Z,20.47
2022-08-07T00:19:57.452Z,20.35
2022-08-07T00:22:24.399Z,20.54
2022-08-07T00:25:11.032Z,20.41
2022-08-07T00:27:52.779Z,20.47
2022-08-07T00:30:28.220Z,19.66
2022-08-07T00:32:57.341Z,19.73
2022-08-07T00:35:25.501Z,20.25
2022-08-07T00:37:53.264Z,20.18
2022-08-07T00:40:36.994Z,19.78
2022-08-07T00:43:09.838Z,20.31
2022-08-07T00:45:53.954Z,20.21
2022-08-07T00:48:25.090Z,20.13
2022-08-07T00:50:59.801Z,20.02
2022-08-07T00:53:26.950Z,19.82
2022-08-07T00:56:07.488Z,20.00
2022-08-07T00:58:47.475Z,20.25
2022-08-07T01:01:18.256Z,20.19
2022-08-07T01:03:57.392Z,20.26
2022-08-07T01:06:29.104Z,19.87
2022-08-07T01:08:58.400Z,20.19
2022-08-07T01:12:23.279Z,20.22
2022-08-07T01:14:15.527Z,19.92
2022-08-07T01:16:47.311Z,19.97
2022-08-07T01:19:18.951Z,19.80
2022-08-07T01:21:53.269Z,19.50
2022-08-07T01:24:25.666Z,19.83
2022-08-07T01:26:54.100Z,20.02
2022-08-07T01:29:27.837Z,19.75
2022-08-07T01:31:59.716Z,19.50
2022-08-07T01:34:31.895Z,19.42
2022-08-07T01:37:03.094Z,19.35
2022-08-07T01:39:41.444Z,19.21
2022-08-07T01:42:39.455Z,19.52
2022-08-07T01:45:15.844Z,19.49
2022-08-07T01:48:19.182Z,19.23
2022-08-07T01:50:40.386Z,19.23
2022-08-07T01:53:11.740Z,19.51
2022-08-07T01:55:51.338Z,19.47
2022-08-07T01:58:29.250Z,19.35
2022-08-07T02:01:10.295Z,19.38
2022-08-07T02:03:57.215Z,19.44
2022-08-07T02:06:31.867Z,19.36
2022-08-07T02:09:05.936Z,19.45
2022-08-07T02:12:04.730Z,19.16
2022-08-07T02:14:36.632Z,19.30
2022-08-07T02:17:16.499Z,19.37
2022-08-07T02:20:07.204Z,19.08
2022-08-07T02:22:41.347Z,19.07
2022-08-07T02:25:18.098Z,19.10
2022-08-07T02:27:56.294Z,19.17
2022-08-07T02:30:24.367Z,19.25
2022-08-07T02:33:00.971Z,19.15
2022-08-07T02:36:29.409Z,18.99
2022-08-07T02:38:31.516Z,19.21
2022-08-07T02:41:04.109Z,19.09
2022-08-07T02:43:36.043Z,18.47
2022-08-07T02:46:07.318Z,18.71
2022-08-07T02:48:35.699Z,18.68
2022-08-07T02:51:29.033Z,18.60
2022-08-07T02:54:01.580Z,18.49
2022-08-07T02:56:31.620Z,18.94
2022-08-07T02:59:01.659Z,18.92
2022-08-07T03:01:36.354Z,19.07
2022-08-07T03:04:12.872Z,18.91
2022-08-07T03:06:44.734Z,18.72
2022-08-07T03:09:15.089Z,18.78
2022-08-07T03:12:05.671Z,18.79
2022-08-07T03:14:36.401Z,18.75
2022-08-07T03:17:04.936Z,19.03
2022-08-07T03:19:37.118Z,18.88
2022-08-07T03:22:07.063Z,18.55
2022-08-07T03:24:34.880Z,18.44
2022-08-07T03:27:06.195Z,18.62
2022-08-07T03:29:49.574Z,18.84
2022-08-07T03:32:23.335Z,18.75
2022-08-07T03:35:16.633Z,18.49
2022-08-07T03:37:53.133Z,18.59
2022-08-07T03:40:24.164Z,18.50
2022-08-07T03:43:00.668Z,18.58
2022-08-07T03:45:30.647Z,18.60
2022-08-07T03:48:03.799Z,18.72
2022-08-07T03:50:37.353Z,18.72
2022-08-07T03:53:04.910Z,18.50
2022-08-07T03:55:46.097Z,18.74
2022-08-07T03:59:07.309Z,18.70
2022-08-07T04:01:11.543Z,18.62
2022-08-07T04:03:53.205Z,18.68
2022-08-07T04:06:37.534Z,18.37
2022-08-07T04:09:08.407Z,18.47
2022-08-07T04:12:26.570Z,18.51
2022-08-07T04:14:37.450Z,18.69
2022-08-07T04:17:20.321Z,18.78
2022-08-07T04:19:51.995Z,18.70
2022-08-07T04:22:28.855Z,18.50
2022-08-07T04:25:01.139Z,18.36
2022-08-07T04:27:35.420Z,18.53
2022-08-07T04:30:21.011Z,18.25
2022-08-07T04:32:58.161Z,18.24
2022-08-07T04:35:26.685Z,18.04
2022-08-07T04:38:03.668Z,18.20
2022-08-07T04:40:34.895Z,18.18
2022-08-07T04:43:03.357Z,18.14
2022-08-07T04:46:01.033Z,17.99
2022-08-07T04:48:37.222Z,17.99
2022-08-07T04:51:21.039Z,17.93
2022-08-07T04:54:22.690Z,17.98
2022-08-07T04:58:23.765Z,18.18
2022-08-07T05:00:19.045Z,18.16
2022-08-07T05:03:59.714Z,18.03
2022-08-07T05:06:19.999Z,18.02
2022-08-07T05:09:00.553Z,18.06
2022-08-07T05:11:56.985Z,18.25
2022-08-07T05:14:58.187Z,18.15
2022-08-07T05:17:50.937Z,18.33
2022-08-07T05:20:24.952Z,18.38
2022-08-07T05:22:59.342Z,18.26
2022-08-07T05:25:54.415Z,18.12
2022-08-07T05:28:23.000Z,18.17
2022-08-07T05:30:53.178Z,18.07
2022-08-07T05:33:21.880Z,18.15
2022-08-07T05:35:52.828Z,18.18
2022-08-07T05:38:59.954Z,18.25
2022-08-07T05:41:13.979Z,18.19
2022-08-07T05:44:08.635Z,18.20
2022-08-07T05:46:31.337Z,17.74
2022-08-07T05:48:59.815Z,17.95
2022-08-07T05:51:33.424Z,18.15
2022-08-07T05:54:13.868Z,17.83
2022-08-07T05:56:56.049Z,17.46
2022-08-07T05:59:26.240Z,17.60
2022-08-07T06:02:00.068Z,17.94
2022-08-07T06:04:30.442Z,17.44
2022-08-07T06:07:03.661Z,17.48
2022-08-07T06:10:04.766Z,17.69
2022-08-07T06:12:31.763Z,18.15
2022-08-07T06:15:05.567Z,17.93
2022-08-07T06:17:37.737Z,18.09
2022-08-07T06:20:12.829Z,17.84
2022-08-07T06:23:02.271Z,17.62
2022-08-07T06:25:54.470Z,17.49
2022-08-07T06:28:27.528Z,17.90
2022-08-07T06:30:56.220Z,18.25
2022-08-07T06:33:26.275Z,17.91
2022-08-07T06:36:12.454Z,17.96
2022-08-07T06:38:58.470Z,17.86
2022-08-07T06:42:01.666Z,17.80
2022-08-07T06:44:51.613Z,18.08
2022-08-07T06:47:19.719Z,17.90
2022-08-07T06:49:51.049Z,17.66
2022-08-07T06:52:31.614Z,17.92
2022-08-07T06:55:32.993Z,18.19
2022-08-07T06:58:06.653Z,18.15
2022-08-07T07:00:44.481Z,17.98
2022-08-07T07:03:14.564Z,18.18
2022-08-07T07:06:03.485Z,18.54
2022-08-07T07:08:34.135Z,18.69
2022-08-07T07:11:13.154Z,18.59
2022-08-07T07:13:57.595Z,18.48
2022-08-07T07:16:30.911Z,18.59
2022-08-07T07:19:11.247Z,18.59
2022-08-07T07:22:11.738Z,18.65
2022-08-07T07:24:43.120Z,18.33
2022-08-07T07:27:35.263Z,18.65
2022-08-07T07:30:26.345Z,18.81
2022-08-07T07:33:04.899Z,18.69
2022-08-07T07:35:54.211Z,18.54
2022-08-07T07:38:25.405Z,19.01
2022-08-07T07:41:01.868Z,19.11
2022-08-07T07:44:14.445Z,19.40
2022-08-07T07:46:53.341Z,19.27
2022-08-07T07:50:29.831Z,19.34
2022-08-07T07:51:57.447Z,19.38
2022-08-07T07:54:28.023Z,19.34
2022-08-07T07:56:57.277Z,19.21
2022-08-07T07:59:27.188Z,19.67
2022-08-07T08:02:22.628Z,19.56
2022-08-07T08:05:04.345Z,19.66
2022-08-07T08:07:35.648Z,19.56
2022-08-07T08:10:10.546Z,19.71
2022-08-07T08:12:59.084Z,19.86
2022-08-07T08:15:58.019Z,19.91
2022-08-07T08:18:19.199Z,20.24
2022-08-07T08:20:47.968Z,20.04
2022-08-07T08:23:37.898Z,20.11
2022-08-07T08:26:25.153Z,20.38
2022-08-07T08:28:54.448Z,20.14
2022-08-07T08:31:59.163Z,20.17
2022-08-07T08:34:12.617Z,20.67
2022-08-07T08:36:56.299Z,20.58
2022-08-07T08:39:25.297Z,20.74
2022-08-07T08:42:18.232Z,20.85
2022-08-07T08:45:00.650Z,20.79
2022-08-07T08:47:52.231Z,20.66
2022-08-07T08:50:34.797Z,20.94
2022-08-07T08:53:22.557Z,20.93
2022-08-07T08:55:58.591Z,20.90
2022-08-07T08:58:47.723Z,21.16
2022-08-07T09:01:40.121Z,21.15
2022-08-07T09:04:31.542Z,21.15
2022-08-07T09:07:11.353Z,21.53
2022-08-07T09:09:57.205Z,21.13
2022-08-07T09:12:31.129Z,21.15
2022-08-07T09:16:22.441Z,21.48
2022-08-07T09:18:42.498Z,21.69
2022-08-07T09:21:33.838Z,21.52
2022-08-07T09:24:58.921Z,21.56
2022-08-07T09:27:59.812Z,21.46
2022-08-07T09:30:51.711Z,21.64
2022-08-07T09:33:57.514Z,21.82
2022-08-07T09:36:35.832Z,21.70
2022-08-07T09:39:52.927Z,21.88
2022-08-07T09:42:07.852Z,22.16
2022-08-07T09:47:24.705Z,22.34
2022-08-07T09:48:01.453Z,21.99
2022-08-07T09:51:01.130Z,22.24
2022-08-07T09:53:40.877Z,22.25
2022-08-07T09:56:41.941Z,22.16
2022-08-07T10:00:00.903Z,22.46
2022-08-07T10:02:55.619Z,22.36
2022-08-07T10:06:02.659Z,22.85
2022-08-07T10:08:41.921Z,22.75
2022-08-07T10:12:01.167Z,22.52
2022-08-07T10:14:36.222Z,22.96
2022-08-07T10:18:00.785Z,22.56
2022-08-07T10:20:45.301Z,22.53
2022-08-07T10:24:06.185Z,22.84
2022-08-07T10:26:41.757Z,23.07
2022-08-07T10:29:36.931Z,22.97
2022-08-07T10:32:36.491Z,23.10
2022-08-07T10:35:20.344Z,22.89
2022-08-07T10:38:47.910Z,23.16
2022-08-07T10:41:11.678Z,23.13
2022-08-07T10:44:13.038Z,23.65
2022-08-07T10:47:11.574Z,23.27
2022-08-07T10:49:50.947Z,23.28
2022-08-07T10:52:51.232Z,23.10
2022-08-07T10:55:37.230Z,23.49
2022-08-07T10:58:36.565Z,23.36
2022-08-07T11:01:11.716Z,23.92
2022-08-07T11:03:52.520Z,23.64
2022-08-07T11:06:56.162Z,23.26
2022-08-07T11:10:09.100Z,23.32
2022-08-07T11:12:31.966Z,23.38
2022-08-07T11:15:02.561Z,23.50
2022-08-07T11:17:53.962Z,23.50
2022-08-07T11:20:35.423Z,23.63
2022-08-07T11:23:26.460Z,23.82
2022-08-07T11:26:25.317Z,23.90
2022-08-07T11:29:01.493Z,23.75
2022-08-07T11:31:41.629Z,23.62
2022-08-07T11:34:20.685Z,24.27
2022-08-07T11:37:02.236Z,24.02
2022-08-07T11:40:00.221Z,23.87
2022-08-07T11:43:00.900Z,24.22
2022-08-07T11:45:53.168Z,24.16
2022-08-07T11:48:53.957Z,24.21
2022-08-07T11:51:44.958Z,24.42
2022-08-07T11:54:31.464Z,24.24
2022-08-07T11:57:20.601Z,24.27
2022-08-07T12:00:19.722Z,24.70
2022-08-07T12:03:42.160Z,23.96
2022-08-07T12:06:37.211Z,24.23
2022-08-07T12:09:16.716Z,24.41
2022-08-07T12:12:11.649Z,24.46
2022-08-07T12:14:56.146Z,24.78
2022-08-07T12:17:34.215Z,24.91
2022-08-07T12:20:30.812Z,24.35
2022-08-07T12:23:17.924Z,24.56
2022-08-07T12:26:22.685Z,24.81
2022-08-07T12:29:12.651Z,25.03
2022-08-07T12:32:02.090Z,24.71
2022-08-07T12:34:35.930Z,24.77
2022-08-07T12:37:16.260Z,25.19
2022-08-07T12:39:50.591Z,24.94
2022-08-07T12:42:27.815Z,24.87
2022-08-07T12:45:06.635Z,24.93
2022-08-07T12:47:45.610Z,25.26
2022-08-07T12:50:38.088Z,25.22
2022-08-07T12:53:22.523Z,25.28
2022-08-07T12:56:21.377Z,24.89
2022-08-07T12:58:53.236Z,25.00
2022-08-07T13:01:39.772Z,24.92
2022-08-07T13:04:34.223Z,25.23
2022-08-07T13:08:14.512Z,25.19
2022-08-07T13:10:52.264Z,25.14
2022-08-07T13:13:57.488Z,25.02
2022-08-07T13:16:32.415Z,25.43
2022-08-07T13:19:46.279Z,25.38
2022-08-07T13:22:27.675Z,25.39
2022-08-07T13:25:02.517Z,25.22
2022-08-07T13:28:13.809Z,25.20
2022-08-07T13:30:40.038Z,25.50
2022-08-07T13:34:31.125Z,25.39
2022-08-07T13:36:30.422Z,25.59
2022-08-07T13:39:48.936Z,25.63
2022-08-07T13:42:10.211Z,25.42
2022-08-07T13:44:39.586Z,25.48
2022-08-07T13:47:10.590Z,25.76
2022-08-07T13:50:35.669Z,25.65
2022-08-07T13:52:40.822Z,25.82
2022-08-07T13:55:26.288Z,25.23
2022-08-07T13:58:28.103Z,25.72
2022-08-07T14:01:08.749Z,25.34
2022-08-07T14:04:05.103Z,25.59
2022-08-07T14:06:38.600Z,25.64
2022-08-07T14:09:07.237Z,25.73
2022-08-07T14:12:00.125Z,25.94
2022-08-07T14:14:38.832Z,26.93
2022-08-07T14:17:13.064Z,25.74
2022-08-07T14:20:42.030Z,26.02
2022-08-07T14:23:09.941Z,25.82
2022-08-07T14:25:45.908Z,26.43
2022-08-07T14:28:18.155Z,26.14
2022-08-07T14:30:47.916Z,25.92
2022-08-07T14:33:22.411Z,26.36
2022-08-07T14:35:55.830Z,25.99
2022-08-07T14:38:30.221Z,26.17
2022-08-07T14:41:05.351Z,26.30
2022-08-07T14:43:58.901Z,26.17
2022-08-07T14:46:31.974Z,26.17
2022-08-07T14:49:57.512Z,26.25
2022-08-07T14:52:03.842Z,26.39
2022-08-07T14:54:41.688Z,26.41
2022-08-07T14:57:19.129Z,26.21
2022-08-07T15:00:05.383Z,26.03
2022-08-07T15:05:23.460Z,25.97
2022-08-07T15:07:52.504Z,26.37
2022-08-07T15:10:26.804Z,25.98
2022-08-07T15:12:59.749Z,26.22
2022-08-07T15:15:38.763Z,26.53
2022-08-07T15:18:14.516Z,26.18
2022-08-07T15:25:14.122Z,26.49
2022-08-07T15:26:55.410Z,26.60
2022-08-07T15:30:10.334Z,26.70
2022-08-07T15:32:12.816Z,26.22
2022-08-07T15:34:50.461Z,26.13
2022-08-07T15:37:28.783Z,26.19
2022-08-07T15:40:33.806Z,26.47
2022-08-07T15:46:31.473Z,26.38
2022-08-07T15:49:12.413Z,26.47
2022-08-07T15:54:34.609Z,25.99
2022-08-07T15:57:28.050Z,26.11
2022-08-07T16:00:04.490Z,26.32
2022-08-07T16:02:40.982Z,26.27
2022-08-07T16:05:15.362Z,26.48
2022-08-07T16:08:30.478Z,26.48
2022-08-07T16:10:36.829Z,26.43
2022-08-07T16:13:58.064Z,26.30
2022-08-07T16:16:47.809Z,26.15
2022-08-07T16:19:11.649Z,26.16
2022-08-07T16:22:19.234Z,26.07
2022-08-07T16:25:07.645Z,26.11
2022-08-07T16:27:41.652Z,26.25
2022-08-07T16:30:30.479Z,26.09
2022-08-07T16:34:02.579Z,26.04
2022-08-07T16:36:22.136Z,26.23
2022-08-07T16:39:20.840Z,26.26
2022-08-07T16:42:21.715Z,26.00
2022-08-07T16:45:23.345Z,26.43
2022-08-07T16:47:58.120Z,26.21
2022-08-07T16:51:22.652Z,26.04
2022-08-07T16:54:06.370Z,26.26
2022-08-07T16:56:54.141Z,26.17
2022-08-07T16:59:58.128Z,25.91
2022-08-07T17:03:05.860Z,25.79
2022-08-07T17:06:19.818Z,25.83
2022-08-07T17:09:14.416Z,25.68
2022-08-07T17:12:04.457Z,25.77
2022-08-07T17:14:36.444Z,26.01
2022-08-07T17:17:09.927Z,25.94
2022-08-07T17:20:02.179Z,26.13
2022-08-07T17:22:37.983Z,26.12
2022-08-07T17:25:16.118Z,26.34
2022-08-07T17:27:57.061Z,26.31
2022-08-07T17:30:35.176Z,26.51
2022-08-07T17:34:09.733Z,25.92
2022-08-07T17:36:02.886Z,26.18
2022-08-07T17:38:44.728Z,26.17
2022-08-07T17:42:04.378Z,25.77
2022-08-07T17:44:34.094Z,25.43
2022-08-07T17:47:42.326Z,25.74
2022-08-07T17:50:20.661Z,25.54
2022-08-07T17:52:55.485Z,25.35
2022-08-07T17:56:00.546Z,25.52
2022-08-07T17:58:46.437Z,25.25
2022-08-07T18:01:22.609Z,25.28
2022-08-07T18:04:16.337Z,25.36
2022-08-07T18:07:19.580Z,25.42
2022-08-07T18:10:05.340Z,25.51
2022-08-07T18:12:48.027Z,25.40
2022-08-07T18:15:32.724Z,25.56
2022-08-07T18:18:47.449Z,25.58
2022-08-07T18:21:37.383Z,25.63
2022-08-07T18:24:07.253Z,25.56
2022-08-07T18:26:56.649Z,25.52
2022-08-07T18:30:06.593Z,25.49
2022-08-07T18:32:46.139Z,25.42
2022-08-07T18:35:51.550Z,25.44
2022-08-07T18:38:55.182Z,25.54
2022-08-07T18:41:53.073Z,25.41
2022-08-07T18:45:40.273Z,25.28
2022-08-07T18:48:10.026Z,25.56
2022-08-07T18:52:38.913Z,25.53
2022-08-07T18:54:27.633Z,25.44
2022-08-07T18:57:30.653Z,25.29
2022-08-07T19:00:34.380Z,25.27
2022-08-07T19:03:15.808Z,25.32
2022-08-07T19:06:16.591Z,25.39
2022-08-07T19:08:58.929Z,25.41
2022-08-07T19:12:04.963Z,25.32
2022-08-07T19:14:58.285Z,25.47
2022-08-07T19:18:11.427Z,25.35
2022-08-07T19:21:08.999Z,25.34
2022-08-07T19:23:58.451Z,25.33
2022-08-07T19:27:09.295Z,25.35
2022-08-07T19:31:00.066Z,25.22
2022-08-07T19:32:17.415Z,25.13
2022-08-07T19:35:09.543Z,25.11
2022-08-07T19:37:57.133Z,25.21
2022-08-07T19:40:31.810Z,25.01
2022-08-07T19:43:21.658Z,25.08
2022-08-07T19:46:07.413Z,24.69
2022-08-07T19:49:05.049Z,24.41
2022-08-07T19:51:52.212Z,24.39
2022-08-07T19:54:29.982Z,24.20
2022-08-07T19:58:01.163Z,24.32
2022-08-07T19:59:54.386Z,24.24
2022-08-07T20:02:34.954Z,23.81
2022-08-07T20:05:08.929Z,23.76
2022-08-07T20:07:46.479Z,23.83
2022-08-07T20:10:35.919Z,24.18
2022-08-07T20:13:23.015Z,23.74
2022-08-07T20:15:52.212Z,23.88
2022-08-07T20:18:21.996Z,23.87
2022-08-07T20:21:02.843Z,23.66
2022-08-07T20:23:40.861Z,23.60
2022-08-07T20:26:12.949Z,23.58
2022-08-07T20:28:51.766Z,23.25
2022-08-07T20:31:23.235Z,23.51
2022-08-07T20:33:56.380Z,23.18
2022-08-07T20:36:27.187Z,23.42
2022-08-07T20:39:00.843Z,23.30
2022-08-07T20:41:48.575Z,23.64
2022-08-07T20:44:16.201Z,23.26
2022-08-07T20:46:46.098Z,23.00
2022-08-07T20:50:01.087Z,23.48
2022-08-07T20:52:07.849Z,23.13
2022-08-07T20:54:41.708Z,23.06
2022-08-07T20:57:24.814Z,23.02
2022-08-07T21:00:07.167Z,23.17
2022-08-07T21:02:59.155Z,23.10
2022-08-07T21:05:51.199Z,22.87
2022-08-07T21:08:41.073Z,22.44
2022-08-07T21:11:14.459Z,22.11
2022-08-07T21:14:16.164Z,22.45
2022-08-07T21:16:56.171Z,22.46
2022-08-07T21:19:32.447Z,22.88
2022-08-07T21:22:15.175Z,22.54
2022-08-07T21:25:11.745Z,22.74
2022-08-07T21:27:48.708Z,22.59
2022-08-07T21:30:30.041Z,22.92
2022-08-07T21:33:12.104Z,22.98
2022-08-07T21:36:05.766Z,22.35
2022-08-07T21:38:55.487Z,22.42
2022-08-07T21:42:01.474Z,22.40
2022-08-07T21:44:38.460Z,22.60
2022-08-07T21:47:17.297Z,21.83
2022-08-07T21:50:03.225Z,22.00
2022-08-07T21:52:51.889Z,22.46
2022-08-07T21:55:27.852Z,22.42
2022-08-07T21:58:32.237Z,22.46
2022-08-07T22:01:08.460Z,22.27
2022-08-07T22:03:57.512Z,21.96
2022-08-07T22:06:35.718Z,21.85
2022-08-07T22:09:10.343Z,22.29
2022-08-07T22:12:05.254Z,22.35
2022-08-07T22:14:44.029Z,22.42
2022-08-07T22:17:36.264Z,22.21
2022-08-07T22:20:22.704Z,22.38
2022-08-07T22:22:58.957Z,22.27
2022-08-07T22:25:36.948Z,22.09
2022-08-07T22:28:31.792Z,22.00
2022-08-07T22:31:06.681Z,22.03
2022-08-07T22:34:05.041Z,21.14
2022-08-07T22:36:42.310Z,21.06
2022-08-07T22:39:24.981Z,21.25
2022-08-07T22:42:19.098Z,21.28
2022-08-07T22:44:58.306Z,21.07
2022-08-07T22:48:31.456Z,20.98
2022-08-07T22:51:15.922Z,21.35
2022-08-07T22:54:24.438Z,21.54
2022-08-07T22:57:02.209Z,21.27
2022-08-07T22:59:46.948Z,20.70
2022-08-07T23:02:39.241Z,21.06
2022-08-07T23:06:08.459Z,20.81
2022-08-07T23:08:46.083Z,21.28
2022-08-07T23:11:41.255Z,21.25
2022-08-07T23:14:37.409Z,21.07
2022-08-07T23:17:19.936Z,20.99
2022-08-07T23:20:51.245Z,21.20
2022-08-07T23:24:05.568Z,21.20
2022-08-07T23:26:23.403Z,21.18
2022-08-07T23:29:16.560Z,21.14
2022-08-07T23:34:23.251Z,21.04
2022-08-07T23:35:22.071Z,20.90
2022-08-07T23:38:03.951Z,20.99
2022-08-07T23:40:49.403Z,20.85
2022-08-07T23:43:38.842Z,20.88
2022-08-07T23:46:43.106Z,20.83
2022-08-07T23:49:50.498Z,20.72
2022-08-07T23:53:00.015Z,20.72
2022-08-07T23:55:55.381Z,20.42
2022-08-07T23:58:37.153Z,20.42
